Time;durP1;ratioP1;P1;durP2;ratioP2;P2;SDS_P1;SDS_P2;PMS_P1;PMS_P2;Temp;Humidity;BMP_temperature;BMP_pressure;BME280_temperature;BME280_humidity;BME280_pressure;Samples;Min_cycle;Max_cycle;Signal;HPM_P1;HPM_P2
2023/06/22 00:01:53;;;;;;;;;;;;;;;19.16;76.07;101899.19;5111926;28;19938;-56
2023/06/22 00:04:18;;;;;;;;;;;;;;;19.14;76.57;101893.97;5111595;28;19951;-55
2023/06/22 00:06:44;;;;;;;;;;;;;;;19.09;75.78;101895.66;5111798;28;20064;-56
2023/06/22 00:09:10;;;;;;;;;;;;;;;19.07;76.83;101894.75;5112056;28;20382;-54
2023/06/22 00:11:35;;;;;;;;;;;;;;;19.05;76.64;101899.09;5110547;28;19920;-56
2023/06/22 00:14:01;;;;;;;;;;;;;;;19.00;77.21;101882.53;5112162;28;19916;-56
2023/06/22 00:16:26;;;;;;;;;;;;;;;18.95;78.06;101890.31;5101842;28;20336;-56
2023/06/22 00:18:51;;;;;;;;;;;;;;;18.91;78.26;101890.25;5109431;27;19924;-56
2023/06/22 00:21:16;;;;;;;;;;;;;;;18.88;77.42;101890.25;5107308;27;19920;-57
2023/06/22 00:23:43;;;;;;;;;;;;;;;18.85;78.27;101887.59;5106603;28;19916;-55
2023/06/22 00:26:08;;;;;;;;;;;;;;;18.80;79.84;101884.94;5096856;28;19975;-57
2023/06/22 00:28:33;;;;;;;;;;;;;;;18.77;79.32;101897.06;5104234;28;19968;-57
2023/06/22 00:31:00;;;;;;;;;;;;;;;18.73;78.81;101902.22;5104298;28;19920;-57
2023/06/22 00:33:25;;;;;;;;;;;;;;;18.70;79.35;101896.13;5114758;27;19915;-56
2023/06/22 00:35:52;;;;;;;;;;;;;;;18.66;79.32;101900.38;5110243;28;19920;-54
2023/06/22 00:38:17;;;;;;;;;;;;;;;18.65;79.54;101897.78;5107704;28;20057;-43
2023/06/22 00:40:43;;;;;;;;;;;;;;;18.60;80.12;101897.72;5099203;28;19985;-44
2023/06/22 00:43:08;;;;;;;;;;;;;;;18.57;80.18;101895.09;5111964;27;19920;-47
2023/06/22 00:45:33;;;;;;;;;;;;;;;18.53;80.68;101895.91;5101111;28;20490;-44
2023/06/22 00:47:59;;;;;;;;;;;;;;;18.47;81.55;101888.00;5100086;28;20010;-45
2023/06/22 00:50:26;;;;;;;;;;;;;;;18.43;80.73;101881.00;5104047;28;19916;-46
2023/06/22 00:52:52;;;;;;;;;;;;;;;18.38;80.47;101890.50;5091166;28;20261;-44
2023/06/22 00:55:18;;;;;;;;;;;;;;;18.36;81.97;101887.00;5097159;28;19916;-56
2023/06/22 00:57:45;;;;;;;;;;;;;;;18.34;81.36;101887.00;5099330;28;19916;-56
2023/06/22 01:00:17;;;;;;;;;;;;;;;18.32;80.82;101893.00;5107991;27;20018;-56
2023/06/22 01:02:45;;;;;;;;;;;;;;;18.28;81.15;101889.53;5099069;28;19916;-55
2023/06/22 01:05:10;;;;;;;;;;;;;;;18.26;81.84;101892.94;5101174;28;19916;-56
2023/06/22 01:07:39;;;;;;;;;;;;;;;18.19;82.36;101886.78;5112941;27;19960;-45
2023/06/22 01:10:13;;;;;;;;;;;;;;;18.15;82.97;101879.81;5088270;28;19927;-45
2023/06/22 01:12:47;;;;;;;;;;;;;;;18.14;85.14;101878.03;5096184;28;19922;-46
2023/06/22 01:15:19;;;;;;;;;;;;;;;18.09;83.91;101867.59;5105575;28;20255;-43
2023/06/22 01:17:45;;;;;;;;;;;;;;;18.07;84.04;101873.59;5098656;28;19924;-48
2023/06/22 01:20:12;;;;;;;;;;;;;;;18.06;83.98;101877.94;5105941;28;19922;-45
2023/06/22 01:23:01;;;;;;;;;;;;;;;18.05;84.46;101873.59;5102066;28;19961;-44
2023/06/22 01:25:47;;;;;;;;;;;;;;;18.05;83.83;101884.00;5087788;28;19947;-45
2023/06/22 01:28:22;;;;;;;;;;;;;;;18.06;85.29;101879.66;5113513;28;19980;-44
2023/06/22 01:30:49;;;;;;;;;;;;;;;18.05;85.71;101884.00;5103304;28;20352;-57
2023/06/22 01:33:15;;;;;;;;;;;;;;;18.02;86.33;101878.78;5118308;28;19911;-56
2023/06/22 01:35:41;;;;;;;;;;;;;;;17.99;86.06;101883.91;5112612;28;19918;-55
2023/06/22 01:38:07;;;;;;;;;;;;;;;17.97;86.40;101882.16;5113923;28;19916;-56
2023/06/22 01:40:33;;;;;;;;;;;;;;;17.94;87.39;101881.25;5098181;28;19920;-56
2023/06/22 01:43:00;;;;;;;;;;;;;;;17.92;86.46;101879.50;5116668;28;20381;-57
2023/06/22 01:45:26;;;;;;;;;;;;;;;17.91;87.76;101877.75;5110994;28;19919;-57
2023/06/22 01:47:51;;;;;;;;;;;;;;;17.90;88.19;101878.59;5105928;28;19920;-55
2023/06/22 01:50:16;;;;;;;;;;;;;;;17.87;87.29;101883.75;5096530;28;19916;-56
2023/06/22 01:52:42;;;;;;;;;;;;;;;17.85;87.63;101886.34;5095068;28;19947;-56
2023/06/22 01:55:07;;;;;;;;;;;;;;;17.82;88.81;101875.00;5098649;28;19966;-58
2023/06/22 01:57:33;;;;;;;;;;;;;;;17.80;89.14;101871.50;5104563;28;19915;-56
2023/06/22 02:00:05;;;;;;;;;;;;;;;17.78;90.49;101868.03;5101384;28;20007;-56
2023/06/22 02:02:38;;;;;;;;;;;;;;;17.74;90.45;101868.81;5108859;28;19950;-57
2023/06/22 02:05:09;;;;;;;;;;;;;;;17.72;89.87;101871.41;5107278;28;19924;-56
2023/06/22 02:07:39;;;;;;;;;;;;;;;17.67;90.96;101860.91;5095265;28;19947;-56
2023/06/22 02:10:06;;;;;;;;;;;;;;;17.64;90.71;101858.22;5107310;28;19963;-56
2023/06/22 02:12:32;;;;;;;;;;;;;;;17.60;91.44;101859.06;5081972;28;20434;-55
2023/06/22 02:15:00;;;;;;;;;;;;;;;17.57;91.21;101861.59;5100523;28;19896;-56
2023/06/22 02:17:26;;;;;;;;;;;;;;;17.55;90.96;101860.72;5102203;28;20450;-56
2023/06/22 02:19:52;;;;;;;;;;;;;;;17.54;90.82;101855.50;5108028;27;20013;-56
2023/06/22 02:22:17;;;;;;;;;;;;;;;17.55;91.17;101865.91;5116802;27;19923;-56
2023/06/22 02:24:42;;;;;;;;;;;;;;;17.54;91.18;101864.16;5112370;28;19916;-56
2023/06/22 02:27:08;;;;;;;;;;;;;;;17.54;91.73;101864.16;5102839;28;19915;-55
2023/06/22 02:29:33;;;;;;;;;;;;;;;17.55;91.03;101860.72;5105471;28;19916;-56
2023/06/22 02:31:58;;;;;;;;;;;;;;;17.54;90.17;101858.97;5111716;27;19923;-56
2023/06/22 02:34:24;;;;;;;;;;;;;;;17.58;91.90;101859.88;5108735;28;19916;-57
2023/06/22 02:36:52;;;;;;;;;;;;;;;17.57;88.30;101853.78;5111417;27;19920;-56
2023/06/22 02:39:22;;;;;;;;;;;;;;;17.58;90.51;101849.47;5098014;28;19927;-56
2023/06/22 02:41:47;;;;;;;;;;;;;;;17.58;91.95;101847.75;5113202;28;19912;-57
2023/06/22 02:44:12;;;;;;;;;;;;;;;17.56;92.75;101844.25;5112968;28;19931;-56
2023/06/22 02:46:38;;;;;;;;;;;;;;;17.54;89.83;101847.69;5108466;28;20259;-56
2023/06/22 02:49:03;;;;;;;;;;;;;;;17.54;88.62;101847.69;5107042;28;20365;-56
2023/06/22 02:51:28;;;;;;;;;;;;;;;17.54;90.93;101845.97;5117693;27;19981;-57
2023/06/22 02:53:57;;;;;;;;;;;;;;;17.54;91.64;101843.38;5119410;27;20683;-57
2023/06/22 02:56:24;;;;;;;;;;;;;;;17.53;92.40;101836.38;5107679;27;19920;-56
2023/06/22 02:58:50;;;;;;;;;;;;;;;17.49;91.98;101829.41;5112430;28;20164;-56
2023/06/22 03:01:15;;;;;;;;;;;;;;;17.46;91.71;101836.28;5104247;28;19923;-56
2023/06/22 03:03:40;;;;;;;;;;;;;;;17.45;92.06;101834.53;5107918;28;19966;-57
2023/06/22 03:06:06;;;;;;;;;;;;;;;17.42;92.45;101837.97;5103357;28;19965;-57
2023/06/22 03:08:31;;;;;;;;;;;;;;;17.36;93.36;101828.34;5102029;28;19955;-56
2023/06/22 03:10:57;;;;;;;;;;;;;;;17.33;92.27;101817.91;5106944;28;19964;-57
2023/06/22 03:13:22;;;;;;;;;;;;;;;17.31;93.73;101814.41;5107930;28;19954;-57
2023/06/22 03:15:47;;;;;;;;;;;;;;;17.30;93.15;101814.38;5096432;28;20015;-56
2023/06/22 03:18:13;;;;;;;;;;;;;;;17.29;92.79;101815.22;5101607;28;20018;-56
2023/06/22 03:20:38;;;;;;;;;;;;;;;17.29;92.56;101817.81;5108591;27;20282;-56
2023/06/22 03:23:04;;;;;;;;;;;;;;;17.29;93.58;101815.22;5097701;28;19916;-57
2023/06/22 03:25:30;;;;;;;;;;;;;;;17.27;94.95;101809.13;5112520;28;19922;-55
2023/06/22 03:27:55;;;;;;;;;;;;;;;17.25;95.34;101803.03;5112623;28;19916;-56
2023/06/22 03:30:21;;;;;;;;;;;;;;;17.22;93.24;101809.06;5112874;28;19922;-57
2023/06/22 03:32:46;;;;;;;;;;;;;;;17.22;94.93;101805.56;5111544;28;19916;-56
2023/06/22 03:35:13;;;;;;;;;;;;;;;17.20;95.09;101805.56;5112707;28;19922;-56
2023/06/22 03:37:39;;;;;;;;;;;;;;;17.21;94.94;101809.03;5112979;27;19964;-57
2023/06/22 03:40:07;;;;;;;;;;;;;;;17.20;96.25;101809.88;5109162;28;19912;-57
2023/06/22 03:42:36;;;;;;;;;;;;;;;17.18;96.72;101801.19;5117506;27;19969;-57
2023/06/22 03:45:01;;;;;;;;;;;;;;;17.18;97.57;101811.59;5111753;27;19923;-56
2023/06/22 03:47:26;;;;;;;;;;;;;;;17.16;96.93;101804.63;5122585;27;20018;-56
2023/06/22 03:52:54;;;;;;;;;;;;;;;17.17;97.10;101802.94;5092331;28;19927;-56
2023/06/22 03:55:20;;;;;;;;;;;;;;;17.19;98.69;101795.16;5105427;28;19915;-55
2023/06/22 03:57:45;;;;;;;;;;;;;;;17.21;97.84;101799.50;5093434;28;19916;-56
2023/06/22 04:00:11;;;;;;;;;;;;;;;17.23;97.49;101799.53;5113439;27;19937;-55
2023/06/22 04:02:36;;;;;;;;;;;;;;;17.24;94.63;101802.16;5104891;27;20022;-57
2023/06/22 04:05:01;;;;;;;;;;;;;;;17.28;97.85;101790.94;5107526;27;19920;-56
2023/06/22 04:07:27;;;;;;;;;;;;;;;17.31;96.60;101790.13;5107997;28;19926;-56
2023/06/22 04:09:52;;;;;;;;;;;;;;;17.34;95.99;101793.63;5093995;28;19927;-56
2023/06/22 04:12:17;;;;;;;;;;;;;;;17.39;97.11;101786.78;5107141;27;19967;-56
2023/06/22 04:14:42;;;;;;;;;;;;;;;17.46;96.68;101792.94;5113985;27;19965;-55
2023/06/22 04:17:07;;;;;;;;;;;;;;;17.50;95.95;101794.75;5098615;28;20393;-56
2023/06/22 04:19:33;;;;;;;;;;;;;;;17.56;96.19;101792.25;5097346;27;19955;-55
2023/06/22 04:21:58;;;;;;;;;;;;;;;17.69;92.66;101801.09;5095728;28;19928;-55
2023/06/22 04:24:23;;;;;;;;;;;;;;;18.00;95.79;101799.78;5096697;28;19920;-56
2023/06/22 04:26:48;;;;;;;;;;;;;;;18.37;94.71;101790.66;5089826;28;19920;-56
2023/06/22 04:29:14;;;;;;;;;;;;;;;18.61;88.93;101786.56;5098835;28;19923;-56
2023/06/22 04:31:39;;;;;;;;;;;;;;;18.71;88.95;101794.53;5098160;27;20297;-56
2023/06/22 04:34:06;;;;;;;;;;;;;;;18.81;88.79;101798.09;5110422;27;19999;-56
2023/06/22 04:36:37;;;;;;;;;;;;;;;18.86;88.89;101792.91;5106918;27;19923;-56
2023/06/22 04:39:03;;;;;;;;;;;;;;;18.89;87.48;101792.94;5093387;28;19912;-56
2023/06/22 04:41:29;;;;;;;;;;;;;;;18.96;88.01;101802.56;5105427;27;20000;-57
2023/06/22 04:43:54;;;;;;;;;;;;;;;19.17;88.07;101805.34;5100756;27;19976;-57
2023/06/22 04:46:19;;;;;;;;;;;;;;;19.48;86.15;101811.66;5104613;27;19927;-56
2023/06/22 04:48:44;;;;;;;;;;;;;;;19.82;85.22;101802.28;5120406;27;20365;-55
2023/06/22 04:51:10;;;;;;;;;;;;;;;20.11;83.32;101804.16;5122994;27;19912;-57
2023/06/22 04:53:35;;;;;;;;;;;;;;;20.34;82.17;101799.03;5108954;27;19927;-56
2023/06/22 04:56:00;;;;;;;;;;;;;;;20.55;81.73;101800.84;5125136;27;20293;-57
2023/06/22 04:58:28;;;;;;;;;;;;;;;20.74;80.32;101802.59;5096976;27;20298;-56
2023/06/22 05:00:56;;;;;;;;;;;;;;;20.87;80.59;101801.75;5108206;27;19926;-56
2023/06/22 05:03:22;;;;;;;;;;;;;;;20.96;79.82;101813.09;5091489;28;19976;-56
2023/06/22 05:05:47;;;;;;;;;;;;;;;21.03;79.53;101802.63;5099184;28;19911;-56
2023/06/22 05:08:13;;;;;;;;;;;;;;;21.09;79.12;101801.75;5095997;28;19915;-57
2023/06/22 05:10:38;;;;;;;;;;;;;;;21.02;78.82;101800.00;5106556;28;20366;-56
2023/06/22 05:13:03;;;;;;;;;;;;;;;20.83;79.34;101800.00;5099754;28;19959;-57
2023/06/22 05:15:30;;;;;;;;;;;;;;;20.73;80.40;101800.00;5104549;28;19930;-56
2023/06/22 05:17:56;;;;;;;;;;;;;;;20.82;79.65;101802.63;5114889;27;20392;-56
2023/06/22 05:20:21;;;;;;;;;;;;;;;20.84;79.84;101801.75;5108581;28;20007;-57
2023/06/22 05:22:47;;;;;;;;;;;;;;;20.79;79.89;101798.25;5115606;28;20366;-57
2023/06/22 05:25:13;;;;;;;;;;;;;;;20.69;80.90;101798.22;5101623;28;19927;-56
2023/06/22 05:27:39;;;;;;;;;;;;;;;20.57;80.84;101793.88;5099670;28;19954;-55
2023/06/22 05:30:08;;;;;;;;;;;;;;;20.49;81.58;101792.97;5107532;28;19920;-57
2023/06/22 05:32:33;;;;;;;;;;;;;;;20.43;82.33;101792.94;5122835;28;20366;-57
2023/06/22 05:34:59;;;;;;;;;;;;;;;20.38;81.73;101799.88;5114169;28;19920;-56
2023/06/22 05:37:24;;;;;;;;;;;;;;;20.32;82.64;101795.50;5094772;28;20493;-55
2023/06/22 05:39:49;;;;;;;;;;;;;;;20.28;83.49;101797.25;5099301;28;19931;-56
2023/06/22 05:42:14;;;;;;;;;;;;;;;20.25;82.95;101801.59;5103846;28;20435;-56
2023/06/22 05:44:40;;;;;;;;;;;;;;;20.22;82.30;101796.38;5102282;28;20323;-56
2023/06/22 05:47:05;;;;;;;;;;;;;;;20.25;82.54;101794.63;5094674;28;19927;-56
2023/06/22 05:49:32;;;;;;;;;;;;;;;20.47;82.71;101797.34;5103632;28;19916;-57
2023/06/22 05:51:57;;;;;;;;;;;;;;;20.78;83.04;101796.50;5105179;27;19973;-57
2023/06/22 05:54:23;;;;;;;;;;;;;;;21.08;80.76;101792.16;5116931;27;20538;-57
2023/06/22 05:56:48;;;;;;;;;;;;;;;21.13;80.62;101787.81;5104371;27;19973;-57
2023/06/22 05:59:13;;;;;;;;;;;;;;;21.07;80.12;101787.81;5116473;27;19923;-57
2023/06/22 06:01:40;;;;;;;;;;;;;;;20.97;80.50;101786.06;5110677;27;19916;-56
2023/06/22 06:04:07;;;;;;;;;;;;;;;20.87;81.17;101788.69;5110731;27;19916;-56
2023/06/22 06:06:34;;;;;;;;;;;;;;;20.81;80.91;101793.91;5111104;27;19916;-56
2023/06/22 06:09:00;;;;;;;;;;;;;;;20.70;81.08;101798.25;5104968;28;19922;-57
2023/06/22 06:11:25;;;;;;;;;;;;;;;20.62;82.15;101793.00;5092911;27;20026;-56
2023/06/22 06:13:51;;;;;;;;;;;;;;;20.53;81.98;101790.38;5098356;28;19970;-55
2023/06/22 06:16:16;;;;;;;;;;;;;;;20.59;81.71;101789.53;5100619;28;19916;-57
2023/06/22 06:18:41;;;;;;;;;;;;;;;20.58;83.76;101779.94;5103369;27;19923;-57
2023/06/22 06:21:06;;;;;;;;;;;;;;;20.54;83.15;101779.06;5123650;27;20372;-56
2023/06/22 06:23:32;;;;;;;;;;;;;;;20.50;81.96;101772.06;5110880;27;19923;-56
2023/06/22 06:25:57;;;;;;;;;;;;;;;20.56;83.94;101776.44;5102869;28;19944;-57
2023/06/22 06:28:24;;;;;;;;;;;;;;;20.69;84.04;101782.56;5099592;28;19920;-56
2023/06/22 06:30:51;;;;;;;;;;;;;;;20.91;83.94;101776.47;5104539;27;19920;-56
2023/06/22 06:33:17;;;;;;;;;;;;;;;21.07;81.43;101782.56;5123869;27;19912;-56
2023/06/22 06:35:42;;;;;;;;;;;;;;;21.19;82.29;101779.09;5119519;27;19918;-56
2023/06/22 06:38:07;;;;;;;;;;;;;;;21.29;81.30;101786.94;5110760;28;20019;-57
2023/06/22 06:40:32;;;;;;;;;;;;;;;21.32;81.65;101786.94;5102969;28;20443;-56
2023/06/22 06:42:58;;;;;;;;;;;;;;;21.27;81.09;101788.66;5120357;27;19988;-56
2023/06/22 06:45:23;;;;;;;;;;;;;;;21.29;81.29;101780.81;5113944;27;19916;-57
2023/06/22 06:47:49;;;;;;;;;;;;;;;21.35;81.99;101779.06;5108424;27;19969;-57
2023/06/22 06:50:15;;;;;;;;;;;;;;;21.42;81.21;101782.56;5118464;27;19926;-56
2023/06/22 06:52:40;;;;;;;;;;;;;;;21.49;80.86;101780.81;5113851;27;19919;-56
2023/06/22 06:55:11;;;;;;;;;;;;;;;21.54;80.52;101779.06;5097774;28;19915;-56
2023/06/22 06:57:37;;;;;;;;;;;;;;;21.58;81.43;101784.25;5101012;28;19985;-57
2023/06/22 07:00:07;;;;;;;;;;;;;;;21.61;81.14;101788.63;5097184;28;20332;-57
2023/06/22 07:02:32;;;;;;;;;;;;;;;21.71;80.76;101779.84;5098790;28;19916;-56
2023/06/22 07:04:58;;;;;;;;;;;;;;;21.84;80.25;101785.91;5101586;28;19977;-56
2023/06/22 07:07:23;;;;;;;;;;;;;;;21.91;80.27;101783.28;5097807;28;19912;-56
2023/06/22 07:09:49;;;;;;;;;;;;;;;22.03;78.97;101776.25;5108357;28;19923;-57
2023/06/22 07:12:14;;;;;;;;;;;;;;;22.17;79.02;101775.31;5099775;28;19969;-56
2023/06/22 07:14:39;;;;;;;;;;;;;;;22.33;78.80;101776.13;5098193;28;20862;-58
2023/06/22 07:17:04;;;;;;;;;;;;;;;22.39;79.11;101768.22;5096043;28;19958;-57
2023/06/22 07:19:31;;;;;;;;;;;;;;;22.52;78.25;101771.63;5103115;28;20294;-57
2023/06/22 07:21:56;;;;;;;;;;;;;;;22.59;78.04;101760.22;5102308;28;19924;-56
2023/06/22 07:24:21;;;;;;;;;;;;;;;22.65;77.72;101760.16;5104724;28;19923;-56
2023/06/22 07:26:48;;;;;;;;;;;;;;;22.63;77.86;101758.41;5073993;28;19934;-56
2023/06/22 07:29:13;;;;;;;;;;;;;;;22.69;77.16;101759.28;5099043;28;19945;-56
2023/06/22 07:31:40;;;;;;;;;;;;;;;22.80;77.27;101756.53;5100330;28;19924;-56
2023/06/22 07:34:05;;;;;;;;;;;;;;;22.80;76.20;101756.53;5097980;28;20010;-56
2023/06/22 07:36:30;;;;;;;;;;;;;;;22.76;76.07;101754.84;5102253;28;20014;-56
2023/06/22 07:38:56;;;;;;;;;;;;;;;22.70;76.80;101752.28;5101997;28;20030;-57
2023/06/22 07:41:21;;;;;;;;;;;;;;;22.73;76.93;101753.09;5078387;28;20321;-56
2023/06/22 07:43:46;;;;;;;;;;;;;;;22.79;75.97;101760.03;5100689;28;19916;-56
2023/06/22 07:46:12;;;;;;;;;;;;;;;22.77;76.63;101755.72;5091089;28;19917;-56
2023/06/22 07:48:38;;;;;;;;;;;;;;;22.72;76.52;101746.13;5097531;28;19916;-56
2023/06/22 07:51:03;;;;;;;;;;;;;;;22.68;76.39;101751.38;5093594;28;19912;-56
2023/06/22 07:53:28;;;;;;;;;;;;;;;22.64;76.43;101734.84;5091831;28;19973;-56
2023/06/22 07:55:53;;;;;;;;;;;;;;;22.62;76.91;101736.56;5097909;28;19916;-45
2023/06/22 07:58:20;;;;;;;;;;;;;;;22.66;76.75;101727.81;5094399;28;20290;-44
2023/06/22 08:00:45;;;;;;;;;;;;;;;22.71;76.02;101722.53;5098598;28;19955;-46
2023/06/22 08:03:10;;;;;;;;;;;;;;;22.73;77.34;101715.53;5098198;28;19983;-44
2023/06/22 08:05:36;;;;;;;;;;;;;;;22.74;76.77;101709.38;5097039;28;19927;-46
2023/06/22 08:08:01;;;;;;;;;;;;;;;22.73;78.21;101710.28;5094506;28;19916;-43
2023/06/22 08:10:26;;;;;;;;;;;;;;;22.66;78.48;101696.34;5093724;28;20366;-44
2023/06/22 08:12:52;;;;;;;;;;;;;;;22.59;80.47;101694.69;5092028;28;19927;-45
2023/06/22 08:15:17;;;;;;;;;;;;;;;22.51;81.01;101687.75;5094404;28;19923;-45
2023/06/22 08:17:43;;;;;;;;;;;;;;;22.44;78.45;101689.53;5092533;28;20267;-48
2023/06/22 08:20:12;;;;;;;;;;;;;;;22.32;79.96;101690.50;5091158;28;19932;-44
2023/06/22 08:22:37;;;;;;;;;;;;;;;22.30;82.44;101680.94;5097867;27;19915;-44
2023/06/22 08:25:03;;;;;;;;;;;;;;;22.33;83.67;101679.16;5103880;28;19927;-45
2023/06/22 08:27:31;;;;;;;;;;;;;;;22.37;81.68;101673.00;5090030;27;20281;-43
2023/06/22 08:29:58;;;;;;;;;;;;;;;22.38;81.57;101669.50;5108383;27;20320;-44
2023/06/22 08:32:24;;;;;;;;;;;;;;;22.45;81.82;101671.22;5095684;28;20281;-45
2023/06/22 08:34:49;;;;;;;;;;;;;;;22.52;81.19;101665.91;5108143;27;19911;-46
2023/06/22 08:37:14;;;;;;;;;;;;;;;22.59;80.82;101673.72;5109160;28;19920;-44
2023/06/22 08:39:41;;;;;;;;;;;;;;;22.65;79.58;101675.41;5109532;28;19924;-44
2023/06/22 08:42:06;;;;;;;;;;;;;;;22.69;79.87;101682.34;5098191;28;19916;-45
2023/06/22 08:44:31;;;;;;;;;;;;;;;22.72;77.69;101680.56;5100163;28;19961;-46
2023/06/22 08:46:57;;;;;;;;;;;;;;;22.72;77.07;101675.31;5105489;27;19922;-44
2023/06/22 08:49:22;;;;;;;;;;;;;;;22.78;77.29;101679.66;5107133;27;20322;-45
2023/06/22 08:51:49;;;;;;;;;;;;;;;22.85;76.11;101685.69;5121002;27;19926;-45
2023/06/22 08:54:14;;;;;;;;;;;;;;;22.88;75.44;101672.59;5114050;27;19916;-45
2023/06/22 08:56:39;;;;;;;;;;;;;;;22.93;74.30;101674.31;5094764;28;20354;-48
2023/06/22 08:59:07;;;;;;;;;;;;;;;22.90;72.71;101674.31;5099576;28;19927;-47
2023/06/22 09:01:33;;;;;;;;;;;;;;;22.95;73.19;101676.91;5108448;27;20369;-47
2023/06/22 09:03:59;;;;;;;;;;;;;;;22.95;73.27;101662.03;5104146;28;19912;-45
2023/06/22 09:06:25;;;;;;;;;;;;;;;23.00;72.12;101659.38;5113780;27;20847;-43
2023/06/22 09:08:50;;;;;;;;;;;;;;;22.98;70.94;101656.72;5103380;27;20390;-43
2023/06/22 09:11:16;;;;;;;;;;;;;;;22.98;72.06;101656.72;5104163;28;20378;-47
2023/06/22 09:13:41;;;;;;;;;;;;;;;22.95;71.27;101651.53;5078661;28;19912;-45
2023/06/22 09:16:06;;;;;;;;;;;;;;;22.93;70.28;101658.56;5104972;28;19931;-45
2023/06/22 09:18:32;;;;;;;;;;;;;;;22.89;70.19;101654.22;5109345;27;19919;-44
2023/06/22 09:20:57;;;;;;;;;;;;;;;22.90;71.40;101652.47;5099485;28;20374;-46
2023/06/22 09:23:22;;;;;;;;;;;;;;;22.95;70.33;101653.28;5097115;28;19920;-45
2023/06/22 09:25:47;;;;;;;;;;;;;;;22.89;70.95;101651.59;5089511;28;19923;-44
2023/06/22 09:28:13;;;;;;;;;;;;;;;22.90;70.35;101649.84;5088677;28;19916;-43
2023/06/22 09:30:39;;;;;;;;;;;;;;;22.95;70.06;101648.06;5088252;28;19920;-45
2023/06/22 09:33:04;;;;;;;;;;;;;;;22.94;69.58;101647.19;5090020;28;20334;-44
2023/06/22 09:35:29;;;;;;;;;;;;;;;22.95;68.71;101648.91;5097833;28;19962;-44
2023/06/22 09:37:54;;;;;;;;;;;;;;;22.94;69.64;101652.44;5092477;28;19912;-46
2023/06/22 09:40:20;;;;;;;;;;;;;;;22.95;68.83;101640.19;5097431;28;20022;-45
2023/06/22 09:42:45;;;;;;;;;;;;;;;22.98;69.11;101646.25;5087619;28;19996;-46
2023/06/22 09:45:10;;;;;;;;;;;;;;;22.99;69.53;101642.75;5088328;28;19924;-45
2023/06/22 09:47:36;;;;;;;;;;;;;;;23.02;68.99;101647.97;5089695;28;20324;-45
2023/06/22 09:50:01;;;;;;;;;;;;;;;23.07;69.74;101647.06;5088674;28;20370;-46
2023/06/22 09:52:27;;;;;;;;;;;;;;;23.06;68.24;101646.19;5088942;28;19913;-45
2023/06/22 09:54:52;;;;;;;;;;;;;;;23.05;68.85;101647.03;5088847;28;20061;-43
2023/06/22 09:57:17;;;;;;;;;;;;;;;23.06;69.23;101645.31;5088675;28;19920;-43
2023/06/22 09:59:42;;;;;;;;;;;;;;;23.07;69.42;101636.56;5089420;28;19973;-46
2023/06/22 10:02:08;;;;;;;;;;;;;;;23.08;69.31;101630.41;5088882;28;20329;-44
2023/06/22 10:04:34;;;;;;;;;;;;;;;23.05;69.22;101641.78;5088722;28;19920;-47
2023/06/22 10:07:00;;;;;;;;;;;;;;;23.01;69.67;101640.13;5088331;28;19912;-44
2023/06/22 10:09:25;;;;;;;;;;;;;;;22.99;69.52;101641.88;5088382;28;20010;-44
2023/06/22 10:11:50;;;;;;;;;;;;;;;22.94;70.00;101636.69;5090057;28;19927;-44
2023/06/22 10:14:16;;;;;;;;;;;;;;;22.93;69.90;101628.81;5087764;28;19934;-43
2023/06/22 10:16:42;;;;;;;;;;;;;;;22.91;69.82;101634.09;5084288;28;20405;-45
2023/06/22 10:19:07;;;;;;;;;;;;;;;22.85;69.50;101631.50;5088043;28;19916;-44
2023/06/22 10:21:33;;;;;;;;;;;;;;;22.84;69.87;101628.91;5113982;28;19976;-45
2023/06/22 10:24:01;;;;;;;;;;;;;;;22.83;69.94;101629.78;5107534;28;20283;-43
2023/06/22 10:26:28;;;;;;;;;;;;;;;22.84;70.06;101632.38;5113780;28;19968;-44
2023/06/22 10:28:54;;;;;;;;;;;;;;;22.85;70.12;101631.50;5118191;28;19911;-47
2023/06/22 10:31:19;;;;;;;;;;;;;;;22.86;70.43;101632.38;5102778;28;19923;-45
2023/06/22 10:33:45;;;;;;;;;;;;;;;22.86;70.90;101634.97;5100307;28;20323;-45
2023/06/22 10:36:10;;;;;;;;;;;;;;;22.89;70.78;101629.75;5114692;27;20456;-45
2023/06/22 10:38:36;;;;;;;;;;;;;;;22.89;70.95;101628.00;5114768;27;19924;-45
2023/06/22 10:41:01;;;;;;;;;;;;;;;22.92;71.49;101627.09;5091257;28;19967;-46
2023/06/22 10:43:26;;;;;;;;;;;;;;;22.87;72.15;101629.78;5114840;27;20293;-45
2023/06/22 10:45:51;;;;;;;;;;;;;;;;;;5104599;28;19915;-44
2023/06/22 10:48:16;;;;;;;;;;;;;;;22.74;72.49;101635.97;5103888;28;19916;-45
2023/06/22 10:50:42;;;;;;;;;;;;;;;22.67;71.81;101639.56;5100471;28;19969;-46
2023/06/22 10:53:07;;;;;;;;;;;;;;;22.59;72.28;101641.38;5110011;27;19919;-44
2023/06/22 10:55:32;;;;;;;;;;;;;;;22.52;72.86;101644.94;5101018;28;20379;-46
2023/06/22 10:57:57;;;;;;;;;;;;;;;22.46;74.17;101651.13;5110397;27;19926;-44
2023/06/22 11:00:23;;;;;;;;;;;;;;;22.42;75.28;101659.88;5100934;28;19922;-46
2023/06/22 11:02:48;;;;;;;;;;;;;;;22.33;74.57;101662.59;5109384;27;20018;-49
2023/06/22 11:05:13;;;;;;;;;;;;;;;22.24;75.12;101660.88;5099920;27;20274;-44
2023/06/22 11:07:43;;;;;;;;;;;;;;;22.15;78.53;101663.59;5097934;28;20370;-47
2023/06/22 11:10:08;;;;;;;;;;;;;;;22.03;79.65;101666.25;5100257;28;19925;-46
2023/06/22 11:12:34;;;;;;;;;;;;;;;21.88;81.15;101668.06;5122059;27;19911;-47
2023/06/22 11:14:59;;;;;;;;;;;;;;;21.77;80.13;101663.78;5099387;27;19924;-48
2023/06/22 11:17:24;;;;;;;;;;;;;;;21.65;83.01;101662.09;5113808;27;19916;-47
2023/06/22 11:19:50;;;;;;;;;;;;;;;21.54;84.82;101662.16;5098200;28;19925;-46
2023/06/22 11:22:16;;;;;;;;;;;;;;;21.45;85.58;101650.84;5074824;28;19920;-49
2023/06/22 11:24:41;;;;;;;;;;;;;;;21.32;88.60;101665.72;5084589;28;19930;-46
2023/06/22 11:27:06;;;;;;;;;;;;;;;21.13;87.83;101676.22;5077314;28;19920;-43
2023/06/22 11:29:32;;;;;;;;;;;;;;;21.05;89.85;101677.09;5098226;28;19927;-44
2023/06/22 11:31:57;;;;;;;;;;;;;;;20.96;87.71;101675.38;5085678;28;20010;-45
2023/06/22 11:34:22;;;;;;;;;;;;;;;20.97;92.54;101678.88;5094732;28;20382;-47
2023/06/22 11:36:48;;;;;;;;;;;;;;;20.93;90.40;101683.25;5072783;28;20014;-47
2023/06/22 11:39:14;;;;;;;;;;;;;;;20.86;90.46;101671.03;5090254;28;19977;-48
2023/06/22 11:41:40;;;;;;;;;;;;;;;20.79;95.15;101678.00;5085111;28;19920;-48
2023/06/22 11:44:05;;;;;;;;;;;;;;;20.65;97.13;101669.31;5073038;28;20287;-47
2023/06/22 11:46:31;;;;;;;;;;;;;;;20.42;100.00;101674.50;5096978;28;19920;-48
2023/06/22 11:48:57;;;;;;;;;;;;;;;20.19;100.00;101677.09;5076688;28;20316;-51
2023/06/22 11:51:22;;;;;;;;;;;;;;;19.79;98.83;101668.34;5089960;28;19920;-50
2023/06/22 11:53:47;;;;;;;;;;;;;;;19.38;100.00;101670.75;5083930;28;19927;-46
2023/06/22 11:56:12;;;;;;;;;;;;;;;19.01;100.00;101662.72;5072121;28;20335;-48
2023/06/22 11:58:38;;;;;;;;;;;;;;;18.81;100.00;101662.63;5083709;28;19940;-49
2023/06/22 12:01:03;;;;;;;;;;;;;;;18.60;99.63;101665.00;5086771;28;19921;-47
2023/06/22 12:03:30;;;;;;;;;;;;;;;18.37;100.00;101657.88;5082912;28;21334;-51
2023/06/22 12:05:55;;;;;;;;;;;;;;;18.36;100.00;101647.44;5103871;28;19916;-50
2023/06/22 12:08:21;;;;;;;;;;;;;;;18.37;100.00;101641.38;5101376;28;19919;-46
2023/06/22 12:10:46;;;;;;;;;;;;;;;18.27;100.00;101632.63;5095307;28;20001;-47
2023/06/22 12:13:11;;;;;;;;;;;;;;;18.26;100.00;101632.59;5090303;28;19920;-49
2023/06/22 12:15:37;;;;;;;;;;;;;;;18.26;100.00;101622.19;5094049;28;19994;-50
2023/06/22 12:18:02;;;;;;;;;;;;;;;18.26;100.00;101628.28;5079590;28;20389;-52
2023/06/22 12:20:27;;;;;;;;;;;;;;;18.30;100.00;101629.19;5114262;27;19923;-52
2023/06/22 12:22:55;;;;;;;;;;;;;;;18.27;100.00;101623.97;5121393;27;19919;-51
2023/06/22 12:25:20;;;;;;;;;;;;;;;18.33;100.00;101616.19;5108967;28;19927;-52
2023/06/22 12:27:45;;;;;;;;;;;;;;;18.26;100.00;101615.28;5102429;28;19919;-49
2023/06/22 12:30:11;;;;;;;;;;;;;;;18.32;100.00;101612.72;5115003;27;19916;-53
2023/06/22 12:32:36;;;;;;;;;;;;;;;18.30;100.00;101604.00;5096782;28;20018;-49